createdAt,value
2017-11-03T00:00:31.544Z,81.97
2017-11-03T00:01:31.553Z,82.26
2017-11-03T00:02:31.536Z,82.26
2017-11-03T00:03:31.531Z,82.17
2017-11-03T00:04:32.453Z,82.54
2017-11-03T00:05:31.508Z,82.54
2017-11-03T00:06:31.510Z,82.35
2017-11-03T00:07:32.440Z,82.64
2017-11-03T00:08:31.490Z,83.02
2017-11-03T00:09:31.481Z,82.45
2017-11-03T00:10:32.437Z,82.07
2017-11-03T00:11:31.477Z,81.88
2017-11-03T00:12:32.437Z,82.54
2017-11-03T00:13:32.435Z,82.35
2017-11-03T00:14:31.441Z,82.54
2017-11-03T00:15:31.445Z,82.64
2017-11-03T00:16:37.973Z,82.64
2017-11-03T00:17:31.488Z,83.02
2017-11-03T00:18:37.976Z,82.35
2017-11-03T00:19:31.418Z,82.45
2017-11-03T00:20:31.415Z,82.54
2017-11-03T00:21:31.404Z,82.54
2017-11-03T00:22:31.393Z,82.73
2017-11-03T00:23:31.385Z,82.17
2017-11-03T00:24:31.382Z,83.02
2017-11-03T00:25:31.369Z,82.92
2017-11-03T00:26:31.371Z,82.73
2017-11-03T00:27:31.357Z,82.45
2017-11-03T00:28:31.351Z,82.26
2017-11-03T00:29:31.342Z,82.45
2017-11-03T00:30:31.345Z,82.45
2017-11-03T00:31:31.335Z,82.35
2017-11-03T00:32:31.334Z,82.17
2017-11-03T00:33:31.320Z,81.88
2017-11-03T00:34:33.172Z,81.88
2017-11-03T00:35:33.965Z,82.07
2017-11-03T00:36:31.303Z,82.17
2017-11-03T00:37:31.292Z,82.17
2017-11-03T00:38:31.281Z,82.73
2017-11-03T00:39:31.289Z,82.45
2017-11-03T00:40:31.266Z,82.45
2017-11-03T00:41:31.261Z,83.02
2017-11-03T00:42:31.962Z,82.83
2017-11-03T00:43:31.244Z,82.64
2017-11-03T00:44:31.245Z,82.54
2017-11-03T00:45:32.131Z,82.54
2017-11-03T00:46:31.220Z,82.54
2017-11-03T00:47:31.225Z,82.92
2017-11-03T00:48:31.218Z,82.64
2017-11-03T00:49:31.209Z,83.12
2017-11-03T00:50:31.210Z,82.92
2017-11-03T00:51:31.196Z,83.40
2017-11-03T00:52:31.187Z,83.40
2017-11-03T00:53:31.186Z,83.59
2017-11-03T00:54:31.167Z,83.50
2017-11-03T00:55:31.161Z,83.50
2017-11-03T00:56:31.155Z,83.69
2017-11-03T00:57:31.149Z,83.88
2017-11-03T00:58:31.138Z,84.26
2017-11-03T00:59:31.134Z,83.69
2017-11-03T01:00:31.126Z,83.50
2017-11-03T01:01:31.140Z,83.97
2017-11-03T01:02:31.113Z,84.41
2017-11-03T01:03:31.101Z,84.36
2017-11-03T01:04:31.101Z,84.60
2017-11-03T01:05:31.096Z,84.22
2017-11-03T01:06:31.084Z,84.31
2017-11-03T01:07:31.082Z,84.36
2017-11-03T01:08:31.080Z,84.41
2017-11-03T01:09:31.068Z,84.31
2017-11-03T01:10:31.052Z,84.31
2017-11-03T01:11:31.049Z,84.60
2017-11-03T01:12:31.041Z,84.83
2017-11-03T01:13:31.038Z,84.98
2017-11-03T01:14:31.027Z,85.17
2017-11-03T01:15:31.035Z,84.79
2017-11-03T01:16:31.012Z,85.27
2017-11-03T01:17:31.006Z,85.17
2017-11-03T01:18:31.002Z,84.31
2017-11-03T01:19:31.014Z,85.02
2017-11-03T01:20:30.993Z,84.88
2017-11-03T01:21:30.977Z,84.88
2017-11-03T01:22:30.978Z,84.79
2017-11-03T01:23:30.967Z,84.41
2017-11-03T01:24:30.962Z,84.03
2017-11-03T01:25:30.955Z,84.31
2017-11-03T01:26:30.941Z,84.69
2017-11-03T01:27:30.935Z,84.50
2017-11-03T01:28:30.930Z,84.31
2017-11-03T01:29:30.950Z,84.12
2017-11-03T01:30:30.910Z,84.69
2017-11-03T01:31:30.908Z,84.50
2017-11-03T01:32:30.896Z,84.12
2017-11-03T01:33:30.889Z,84.50
2017-11-03T01:34:30.889Z,84.88
2017-11-03T01:35:30.891Z,85.08
2017-11-03T01:36:30.872Z,84.60
2017-11-03T01:37:30.867Z,83.93
2017-11-03T01:38:30.855Z,84.12
2017-11-03T01:39:30.848Z,84.12
2017-11-03T01:40:30.835Z,84.22
2017-11-03T01:41:30.827Z,84.31
2017-11-03T01:42:30.829Z,84.60
2017-11-03T01:43:30.818Z,84.41
2017-11-03T01:44:30.817Z,84.03
2017-11-03T01:45:30.810Z,84.22
2017-11-03T01:46:30.801Z,84.22
2017-11-03T01:47:30.790Z,84.31
2017-11-03T01:48:30.790Z,84.03
2017-11-03T01:49:30.782Z,84.60
2017-11-03T01:50:30.759Z,83.93
2017-11-03T01:51:30.771Z,84.22
2017-11-03T01:52:30.757Z,84.03
2017-11-03T01:53:30.742Z,83.74
2017-11-03T01:54:30.737Z,83.65
2017-11-03T01:55:30.740Z,83.55
2017-11-03T01:56:30.741Z,84.12
2017-11-03T01:57:30.710Z,83.93
2017-11-03T01:58:30.707Z,84.31
2017-11-03T01:59:30.704Z,83.84
2017-11-03T02:00:30.707Z,83.45
2017-11-03T02:01:30.689Z,84.12
2017-11-03T02:02:30.690Z,84.31
2017-11-03T02:03:30.669Z,84.50
2017-11-03T02:04:30.668Z,83.84
2017-11-03T02:05:30.663Z,84.03
2017-11-03T02:06:30.654Z,84.50
2017-11-03T02:07:30.647Z,84.03
2017-11-03T02:08:30.630Z,83.74
2017-11-03T02:09:30.630Z,83.26
2017-11-03T02:10:30.627Z,83.45
2017-11-03T02:11:30.618Z,83.65
2017-11-03T02:12:30.626Z,84.22
2017-11-03T02:13:30.600Z,83.45
2017-11-03T02:14:30.598Z,83.36
2017-11-03T02:15:30.595Z,83.36
2017-11-03T02:16:30.575Z,83.93
2017-11-03T02:17:30.579Z,84.12
2017-11-03T02:18:30.563Z,84.12
2017-11-03T02:19:30.551Z,84.12
2017-11-03T02:20:30.550Z,84.22
2017-11-03T02:21:30.542Z,84.31
2017-11-03T02:22:30.532Z,84.12
2017-11-03T02:23:30.524Z,84.12
2017-11-03T02:24:30.525Z,84.03
2017-11-03T02:25:30.519Z,83.45
2017-11-03T02:26:30.498Z,83.45
2017-11-03T02:27:30.489Z,83.45
2017-11-03T02:28:30.495Z,83.45
2017-11-03T02:29:30.481Z,83.45
2017-11-03T02:30:30.477Z,83.65
2017-11-03T02:31:30.470Z,83.45
2017-11-03T02:32:30.466Z,83.55
2017-11-03T02:33:30.461Z,83.55
2017-11-03T02:34:30.446Z,82.98
2017-11-03T02:35:30.441Z,82.89
2017-11-03T02:36:30.428Z,83.07
2017-11-03T02:37:30.421Z,82.89
2017-11-03T02:38:30.428Z,82.69
2017-11-03T02:39:30.414Z,82.98
2017-11-03T02:40:30.400Z,83.07
2017-11-03T02:41:30.395Z,82.69
2017-11-03T02:42:30.388Z,82.69
2017-11-03T02:43:30.382Z,82.69
2017-11-03T02:44:30.376Z,82.12
2017-11-03T02:45:30.365Z,83.07
2017-11-03T02:46:30.357Z,83.45
2017-11-03T02:47:30.359Z,83.45
2017-11-03T02:48:30.342Z,83.74
2017-11-03T02:49:30.341Z,83.45
2017-11-03T02:50:30.332Z,82.79
2017-11-03T02:51:30.314Z,82.69
2017-11-03T02:52:30.313Z,83.45
2017-11-03T02:53:30.313Z,83.45
2017-11-03T02:54:30.301Z,83.36
2017-11-03T02:55:30.293Z,83.55
2017-11-03T02:56:30.289Z,83.55
2017-11-03T02:57:30.286Z,83.45
2017-11-03T02:58:30.271Z,83.93
2017-11-03T02:59:30.283Z,83.45
2017-11-03T03:00:30.258Z,83.45
2017-11-03T03:01:30.258Z,83.26
2017-11-03T03:02:30.234Z,83.45
2017-11-03T03:03:30.235Z,83.45
2017-11-03T03:04:30.224Z,83.07
2017-11-03T03:05:30.217Z,82.31
2017-11-03T03:06:30.211Z,81.93
2017-11-03T03:07:30.203Z,81.84
2017-11-03T03:08:30.203Z,82.21
2017-11-03T03:09:30.202Z,81.93
2017-11-03T03:10:30.185Z,81.46
2017-11-03T03:11:30.190Z,81.36
2017-11-03T03:12:30.172Z,81.84
2017-11-03T03:13:30.164Z,82.21
2017-11-03T03:14:30.152Z,82.03
2017-11-03T03:15:30.144Z,82.21
2017-11-03T03:16:30.143Z,82.03
2017-11-03T03:17:30.133Z,82.31
2017-11-03T03:18:30.121Z,82.12
2017-11-03T03:19:30.118Z,81.84
2017-11-03T03:20:30.105Z,81.65
2017-11-03T03:21:30.107Z,81.93
2017-11-03T03:22:30.094Z,82.31
2017-11-03T03:23:30.086Z,82.12
2017-11-03T03:24:30.078Z,82.03
2017-11-03T03:25:30.072Z,82.12
2017-11-03T03:26:30.073Z,81.84
2017-11-03T03:27:30.051Z,82.12
2017-11-03T03:28:30.051Z,82.50
2017-11-03T03:29:30.040Z,81.65
2017-11-03T03:30:30.042Z,82.03
2017-11-03T03:31:30.030Z,81.84
2017-11-03T03:32:30.021Z,81.74
2017-11-03T03:33:30.015Z,82.21
2017-11-03T03:34:30.010Z,82.21
2017-11-03T03:35:29.999Z,82.60
2017-11-03T03:36:29.993Z,82.41
2017-11-03T03:37:30.008Z,82.60
2017-11-03T03:38:29.981Z,82.12
2017-11-03T03:39:29.971Z,81.65
2017-11-03T03:40:29.962Z,81.46
2017-11-03T03:41:29.956Z,82.21
2017-11-03T03:42:29.948Z,81.93
2017-11-03T03:43:29.940Z,81.17
2017-11-03T03:44:30.528Z,81.26
2017-11-03T03:45:29.929Z,82.12
2017-11-03T03:46:29.920Z,82.21
2017-11-03T03:47:29.910Z,81.55
2017-11-03T03:48:29.904Z,82.41
2017-11-03T03:49:29.911Z,81.93
2017-11-03T03:50:29.891Z,81.46
2017-11-03T03:51:29.883Z,81.36
2017-11-03T03:52:29.877Z,81.46
2017-11-03T03:53:29.871Z,80.88
2017-11-03T03:54:29.859Z,81.17
2017-11-03T03:55:29.861Z,81.07
2017-11-03T03:56:29.847Z,80.88
2017-11-03T03:57:29.835Z,81.36
2017-11-03T03:58:29.825Z,81.84
2017-11-03T03:59:29.823Z,81.46
2017-11-03T04:00:29.809Z,81.84
2017-11-03T04:01:29.808Z,81.84
2017-11-03T04:02:29.800Z,82.12
2017-11-03T04:03:29.791Z,81.46
2017-11-03T04:04:29.779Z,81.36
2017-11-03T04:05:29.777Z,81.26
2017-11-03T04:06:29.770Z,81.84
2017-11-03T04:07:29.758Z,82.12
2017-11-03T04:08:29.756Z,82.12
2017-11-03T04:09:29.750Z,81.93
2017-11-03T04:10:29.742Z,81.36
2017-11-03T04:11:29.729Z,80.88
2017-11-03T04:12:29.733Z,80.98
2017-11-03T04:13:29.721Z,80.79
2017-11-03T04:14:29.704Z,80.60
2017-11-03T04:15:29.701Z,80.98
2017-11-03T04:16:29.708Z,81.46
2017-11-03T04:17:29.689Z,81.65
2017-11-03T04:18:29.681Z,81.65
2017-11-03T04:19:29.676Z,81.74
2017-11-03T04:20:29.665Z,81.36
2017-11-03T04:21:29.666Z,80.60
2017-11-03T04:22:29.648Z,80.22
2017-11-03T04:23:29.640Z,80.41
2017-11-03T04:24:29.632Z,80.88
2017-11-03T04:25:29.629Z,80.69
2017-11-03T04:26:29.621Z,80.60
2017-11-03T04:27:29.614Z,80.69
2017-11-03T04:28:29.599Z,81.17
2017-11-03T04:29:29.604Z,81.26
2017-11-03T04:30:29.580Z,80.50
2017-11-03T04:31:29.583Z,80.88
2017-11-03T04:32:29.577Z,80.50
2017-11-03T04:33:29.568Z,80.60
2017-11-03T04:34:29.565Z,80.31
2017-11-03T04:35:29.550Z,80.12
2017-11-03T04:36:29.551Z,80.60
2017-11-03T04:37:29.531Z,80.79
2017-11-03T04:38:29.538Z,80.60
2017-11-03T04:39:29.528Z,81.26
2017-11-03T04:40:29.532Z,80.41
2017-11-03T04:41:30.052Z,80.60
2017-11-03T04:42:29.501Z,80.88
2017-11-03T04:43:29.496Z,80.41
2017-11-03T04:44:29.484Z,80.69
2017-11-03T04:45:29.472Z,80.41
2017-11-03T04:46:29.527Z,80.22
2017-11-03T04:47:30.051Z,80.31
2017-11-03T04:48:29.444Z,79.93
2017-11-03T04:49:29.444Z,80.41
2017-11-03T04:50:29.429Z,80.79
2017-11-03T04:51:29.439Z,80.60
2017-11-03T04:52:29.437Z,80.79
2017-11-03T04:53:29.435Z,80.02
2017-11-03T04:54:29.405Z,80.12
2017-11-03T04:55:29.409Z,79.74
2017-11-03T04:56:29.390Z,79.64
2017-11-03T04:57:29.397Z,79.55
2017-11-03T04:58:29.378Z,79.93
2017-11-03T04:59:29.383Z,79.93
2017-11-03T05:00:29.367Z,80.02
2017-11-03T05:01:29.361Z,79.74
2017-11-03T05:02:29.355Z,79.46
2017-11-03T05:03:29.349Z,79.17
2017-11-03T05:04:29.334Z,79.55
2017-11-03T05:05:29.329Z,79.55
2017-11-03T05:06:29.316Z,79.55
2017-11-03T05:07:29.318Z,80.02
2017-11-03T05:08:29.293Z,79.83
2017-11-03T05:09:29.298Z,79.93
2017-11-03T05:10:29.299Z,80.69
2017-11-03T05:11:29.290Z,80.41
2017-11-03T05:12:29.267Z,79.93
2017-11-03T05:13:29.268Z,80.31
2017-11-03T05:14:29.264Z,80.31
2017-11-03T05:15:29.251Z,80.41
2017-11-03T05:16:29.246Z,80.79
2017-11-03T05:17:29.243Z,80.22
2017-11-03T05:18:29.235Z,80.41
2017-11-03T05:19:29.208Z,80.02
2017-11-03T05:20:29.210Z,80.02
2017-11-03T05:21:29.208Z,80.12
2017-11-03T05:22:29.208Z,80.12
2017-11-03T05:23:29.198Z,80.12
2017-11-03T05:24:29.179Z,80.31
2017-11-03T05:25:29.174Z,80.12
2017-11-03T05:26:29.162Z,80.60
2017-11-03T05:27:29.162Z,80.41
2017-11-03T05:28:29.164Z,80.31
2017-11-03T05:29:29.146Z,80.50
2017-11-03T05:30:29.134Z,79.74
2017-11-03T05:31:29.128Z,79.83
2017-11-03T05:32:29.120Z,79.36
2017-11-03T05:33:29.112Z,79.55
2017-11-03T05:34:29.103Z,79.83
2017-11-03T05:35:29.091Z,79.74
2017-11-03T05:36:29.104Z,79.46
2017-11-03T05:37:29.085Z,80.02
2017-11-03T05:38:29.072Z,80.02
2017-11-03T05:39:29.064Z,80.60
2017-11-03T05:40:29.053Z,80.12
2017-11-03T05:41:29.045Z,79.89
2017-11-03T05:42:29.066Z,80.46
2017-11-03T05:43:29.039Z,80.36
2017-11-03T05:44:29.029Z,80.31
2017-11-03T05:45:29.021Z,80.02
2017-11-03T05:46:29.017Z,80.50
2017-11-03T05:47:29.013Z,79.83
2017-11-03T05:48:29.001Z,80.12
2017-11-03T05:49:28.985Z,79.93
2017-11-03T05:50:28.980Z,80.02
2017-11-03T05:51:28.973Z,80.27
2017-11-03T05:52:28.971Z,80.12
2017-11-03T05:53:28.957Z,80.65
2017-11-03T05:54:28.955Z,79.55
2017-11-03T05:55:28.943Z,79.55
2017-11-03T05:56:28.932Z,79.70
2017-11-03T05:57:28.927Z,80.08
2017-11-03T05:58:28.918Z,80.46
2017-11-03T05:59:28.914Z,80.55
2017-11-03T06:00:28.903Z,80.18
2017-11-03T06:01:28.894Z,80.27
2017-11-03T06:02:28.885Z,80.18
2017-11-03T06:03:28.879Z,79.70
2017-11-03T06:04:28.868Z,80.65
2017-11-03T06:05:28.865Z,80.08
2017-11-03T06:06:28.856Z,80.08
2017-11-03T06:07:28.850Z,80.46
2017-11-03T06:08:28.847Z,80.60
2017-11-03T06:09:28.847Z,79.89
2017-11-03T06:10:28.818Z,80.65
2017-11-03T06:11:28.819Z,80.55
2017-11-03T06:12:28.806Z,79.89
2017-11-03T06:13:28.805Z,79.99
2017-11-03T06:14:28.786Z,80.36
2017-11-03T06:15:28.785Z,80.08
2017-11-03T06:16:28.777Z,80.18
2017-11-03T06:17:28.768Z,80.08
2017-11-03T06:18:28.758Z,80.08
2017-11-03T06:19:28.751Z,80.08
2017-11-03T06:20:28.751Z,80.18
2017-11-03T06:21:28.741Z,80.18
2017-11-03T06:22:28.732Z,80.36
2017-11-03T06:23:28.726Z,79.99
2017-11-03T06:24:28.727Z,79.89
2017-11-03T06:25:28.709Z,80.27
2017-11-03T06:26:28.693Z,80.27
2017-11-03T06:27:28.689Z,79.99
2017-11-03T06:28:28.685Z,80.18
2017-11-03T06:29:28.685Z,80.27
2017-11-03T06:30:28.665Z,80.36
2017-11-03T06:31:28.666Z,79.99
2017-11-03T06:32:28.658Z,80.36
2017-11-03T06:33:28.640Z,80.36
2017-11-03T06:34:28.634Z,80.27
2017-11-03T06:35:28.630Z,80.46
2017-11-03T06:36:28.617Z,80.65
2017-11-03T06:37:28.619Z,80.75
2017-11-03T06:38:28.607Z,80.65
2017-11-03T06:39:28.597Z,80.55
2017-11-03T06:40:28.590Z,80.36
2017-11-03T06:41:28.584Z,80.46
2017-11-03T06:42:28.577Z,80.75
2017-11-03T06:43:28.569Z,81.13
2017-11-03T06:44:28.563Z,81.03
2017-11-03T06:45:28.553Z,81.13
2017-11-03T06:46:28.539Z,81.03
2017-11-03T06:47:28.534Z,80.65
2017-11-03T06:48:28.522Z,81.32
2017-11-03T06:49:28.510Z,81.03
2017-11-03T06:50:28.511Z,80.94
2017-11-03T06:51:28.503Z,80.65
2017-11-03T06:52:28.496Z,80.46
2017-11-03T06:53:28.486Z,80.46
2017-11-03T06:54:28.482Z,80.55
2017-11-03T06:55:28.471Z,80.46
2017-11-03T06:56:28.480Z,80.65
2017-11-03T06:57:28.458Z,81.03
2017-11-03T06:58:28.447Z,80.94
2017-11-03T06:59:28.443Z,80.98
2017-11-03T07:00:28.432Z,80.65
2017-11-03T07:01:28.423Z,80.41
2017-11-03T07:02:28.430Z,80.98
2017-11-03T07:03:28.412Z,80.79
2017-11-03T07:04:28.424Z,80.88
2017-11-03T07:05:28.395Z,81.36
2017-11-03T07:06:28.401Z,81.17
2017-11-03T07:07:28.380Z,80.69
2017-11-03T07:08:28.375Z,80.41
2017-11-03T07:09:28.371Z,80.79
2017-11-03T07:10:28.357Z,80.79
2017-11-03T07:11:28.348Z,80.41
2017-11-03T07:12:28.339Z,80.98
2017-11-03T07:13:28.331Z,80.88
2017-11-03T07:14:28.323Z,80.88
2017-11-03T07:15:28.316Z,81.07
2017-11-03T07:16:28.305Z,81.17
2017-11-03T07:17:28.313Z,81.17
2017-11-03T07:18:28.287Z,80.69
2017-11-03T07:19:28.288Z,80.79
2017-11-03T07:20:28.327Z,80.60
2017-11-03T07:21:28.268Z,80.41
2017-11-03T07:22:28.255Z,80.41
2017-11-03T07:23:28.269Z,80.69
2017-11-03T07:24:28.252Z,80.79
2017-11-03T07:25:28.250Z,80.41
2017-11-03T07:26:28.223Z,80.22
2017-11-03T07:27:28.233Z,80.41
2017-11-03T07:28:28.222Z,80.02
2017-11-03T07:29:28.209Z,80.12
2017-11-03T07:30:28.190Z,80.50
2017-11-03T07:31:28.191Z,80.41
2017-11-03T07:32:28.207Z,80.12
2017-11-03T07:33:28.184Z,80.69
2017-11-03T07:34:28.192Z,80.22
2017-11-03T07:35:28.170Z,80.31
2017-11-03T07:36:28.155Z,80.50
2017-11-03T07:37:28.170Z,80.60
2017-11-03T07:38:28.162Z,79.93
2017-11-03T07:39:28.150Z,80.12
2017-11-03T07:40:28.123Z,80.41
2017-11-03T07:41:28.116Z,80.50
2017-11-03T07:42:28.104Z,80.41
2017-11-03T07:43:28.120Z,80.41
2017-11-03T07:44:28.099Z,80.02
2017-11-03T07:45:28.088Z,79.83
2017-11-03T07:46:28.076Z,79.64
2017-11-03T07:47:28.071Z,79.83
2017-11-03T07:48:28.077Z,79.64
2017-11-03T07:49:28.052Z,80.31
2017-11-03T07:50:28.061Z,80.41
2017-11-03T07:51:28.071Z,79.46
2017-11-03T07:52:28.040Z,80.79
2017-11-03T07:53:28.031Z,80.12
2017-11-03T07:54:28.029Z,80.50
2017-11-03T07:55:28.033Z,80.69
2017-11-03T07:56:28.008Z,80.31
2017-11-03T07:57:28.015Z,79.93
2017-11-03T07:58:27.995Z,79.93
2017-11-03T07:59:27.987Z,79.55
2017-11-03T08:00:27.980Z,79.74
2017-11-03T08:01:27.971Z,79.68
2017-11-03T08:02:27.969Z,79.46
2017-11-03T08:03:27.958Z,79.88
2017-11-03T08:04:27.953Z,79.11
2017-11-03T08:05:27.943Z,79.02
2017-11-03T08:06:27.935Z,78.54
2017-11-03T08:07:27.934Z,78.64
2017-11-03T08:08:27.922Z,78.92
2017-11-03T08:09:27.915Z,78.54
2017-11-03T08:10:27.901Z,78.54
2017-11-03T08:11:27.899Z,78.92
2017-11-03T08:12:27.893Z,78.73
2017-11-03T08:13:28.638Z,78.64
2017-11-03T08:14:27.877Z,78.54
2017-11-03T08:15:27.868Z,78.83
2017-11-03T08:16:27.868Z,78.64
2017-11-03T08:17:27.864Z,78.54
2017-11-03T08:18:27.847Z,78.06
2017-11-03T08:19:27.850Z,77.97
2017-11-03T08:20:27.833Z,77.59
2017-11-03T08:21:27.830Z,77.69
2017-11-03T08:22:27.831Z,77.40
2017-11-03T08:23:27.814Z,77.40
2017-11-03T08:24:27.807Z,77.34
2017-11-03T08:25:27.797Z,76.86
2017-11-03T08:26:27.788Z,76.01
2017-11-03T08:27:28.645Z,76.10
2017-11-03T08:28:27.777Z,76.57
2017-11-03T08:29:27.785Z,76.77
2017-11-03T08:30:27.779Z,76.67
2017-11-03T08:31:27.760Z,75.53
2017-11-03T08:32:27.761Z,76.57
2017-11-03T08:33:27.747Z,76.39
2017-11-03T08:34:28.663Z,76.20
2017-11-03T08:35:28.650Z,78.77
2017-11-03T08:36:27.757Z,80.39
2017-11-03T08:37:27.724Z,76.52
2017-11-03T08:38:27.720Z,76.33
2017-11-03T08:39:27.710Z,74.61
2017-11-03T08:40:27.702Z,74.42
2017-11-03T08:41:27.694Z,74.13
2017-11-03T08:42:27.684Z,73.66
2017-11-03T08:43:27.690Z,73.75
2017-11-03T08:44:27.678Z,73.81
2017-11-03T08:45:27.672Z,74.57
2017-11-03T08:46:27.669Z,75.05
2017-11-03T08:47:27.666Z,74.67
2017-11-03T08:48:27.656Z,74.77
2017-11-03T08:49:27.651Z,74.96
2017-11-03T08:50:27.638Z,75.34
2017-11-03T08:51:27.635Z,75.34
2017-11-03T08:52:27.627Z,75.53
2017-11-03T08:53:27.627Z,75.53
2017-11-03T08:54:27.616Z,75.43
2017-11-03T08:55:27.620Z,74.86
2017-11-03T08:56:27.602Z,75.05
2017-11-03T08:57:27.595Z,75.34
2017-11-03T08:58:28.159Z,75.81
2017-11-03T08:59:27.583Z,75.34
2017-11-03T09:00:27.574Z,75.34
2017-11-03T09:01:28.167Z,74.77
2017-11-03T09:02:28.164Z,75.05
2017-11-03T09:03:27.558Z,75.81
2017-11-03T09:04:27.554Z,74.67
2017-11-03T09:05:27.549Z,75.05
2017-11-03T09:06:27.548Z,75.24
2017-11-03T09:07:27.535Z,74.57
2017-11-03T09:08:27.527Z,74.77
2017-11-03T09:09:27.512Z,74.67
2017-11-03T09:10:27.528Z,74.48
2017-11-03T09:11:27.527Z,74.67
2017-11-03T09:12:27.511Z,74.67
2017-11-03T09:13:27.494Z,74.38
2017-11-03T09:14:27.492Z,74.29
2017-11-03T09:15:27.487Z,74.67
2017-11-03T09:16:28.169Z,74.48
2017-11-03T09:17:27.461Z,74.29
2017-11-03T09:18:27.625Z,74.96
2017-11-03T09:19:27.457Z,74.86
2017-11-03T09:20:27.454Z,74.77
2017-11-03T09:21:27.438Z,74.86
2017-11-03T09:22:27.473Z,74.96
2017-11-03T09:23:27.436Z,75.72
2017-11-03T09:24:27.435Z,74.86
2017-11-03T09:25:27.436Z,75.05
2017-11-03T09:26:27.414Z,75.05
2017-11-03T09:27:27.412Z,74.77
2017-11-03T09:28:28.168Z,75.24
2017-11-03T09:29:27.389Z,74.77
2017-11-03T09:30:27.378Z,75.15
2017-11-03T09:31:27.375Z,75.15
2017-11-03T09:32:27.375Z,74.96
2017-11-03T09:33:27.369Z,75.24
2017-11-03T09:34:27.364Z,75.05
2017-11-03T09:35:27.350Z,75.05
2017-11-03T09:36:27.349Z,75.34
2017-11-03T09:37:27.358Z,74.86
2017-11-03T09:38:28.177Z,74.71
2017-11-03T09:39:27.333Z,74.71
2017-11-03T09:40:27.329Z,75.28
2017-11-03T09:41:27.322Z,74.52
2017-11-03T09:42:27.317Z,74.71
2017-11-03T09:43:27.305Z,74.52
2017-11-03T09:44:27.301Z,74.71
2017-11-03T09:45:27.291Z,74.42
2017-11-03T09:46:27.284Z,74.13
2017-11-03T09:47:27.277Z,74.32
2017-11-03T09:48:27.270Z,74.32
2017-11-03T09:49:27.265Z,73.94
2017-11-03T09:50:27.260Z,74.13
2017-11-03T09:51:27.255Z,73.56
2017-11-03T09:52:27.246Z,73.18
2017-11-03T09:53:27.245Z,73.18
2017-11-03T09:54:27.237Z,73.66
2017-11-03T09:55:27.231Z,73.66
2017-11-03T09:56:27.226Z,73.66
2017-11-03T09:57:27.224Z,73.28
2017-11-03T09:58:27.208Z,72.99
2017-11-03T09:59:27.204Z,73.08
2017-11-03T10:00:27.195Z,73.18
2017-11-03T10:01:27.190Z,73.18
2017-11-03T10:02:27.185Z,73.08
2017-11-03T10:03:27.176Z,73.37
2017-11-03T10:04:27.179Z,72.32
2017-11-03T10:05:27.166Z,72.32
2017-11-03T10:06:27.166Z,72.42
2017-11-03T10:07:27.688Z,72.42
2017-11-03T10:08:27.154Z,72.13
2017-11-03T10:09:27.147Z,73.08
2017-11-03T10:10:27.127Z,73.37
2017-11-03T10:11:27.134Z,73.22
2017-11-03T10:12:27.118Z,73.50
2017-11-03T10:13:27.119Z,72.83
2017-11-03T10:14:27.114Z,72.99
2017-11-03T10:15:27.108Z,72.74
2017-11-03T10:16:27.104Z,72.74
2017-11-03T10:17:27.096Z,72.64
2017-11-03T10:18:27.095Z,72.55
2017-11-03T10:19:27.078Z,72.45
2017-11-03T10:20:27.075Z,72.74
2017-11-03T10:21:27.067Z,72.55
2017-11-03T10:22:27.060Z,72.26
2017-11-03T10:23:27.051Z,72.55
2017-11-03T10:24:27.047Z,72.07
2017-11-03T10:25:27.042Z,71.78
2017-11-03T10:26:27.037Z,71.78
2017-11-03T10:27:27.032Z,72.17
2017-11-03T10:28:27.026Z,71.88
2017-11-03T10:29:27.013Z,72.07
2017-11-03T10:30:27.015Z,71.50
2017-11-03T10:31:27.008Z,71.88
2017-11-03T10:32:27.000Z,71.41
2017-11-03T10:33:27.706Z,71.21
2017-11-03T10:34:26.990Z,71.12
2017-11-03T10:35:26.991Z,71.31
2017-11-03T10:36:26.981Z,71.59
2017-11-03T10:37:26.972Z,71.41
2017-11-03T10:38:26.965Z,71.21
2017-11-03T10:39:26.958Z,71.59
2017-11-03T10:40:26.952Z,71.41
2017-11-03T10:41:26.960Z,71.41
2017-11-03T10:42:26.940Z,71.82
2017-11-03T10:43:26.932Z,71.31
2017-11-03T10:44:26.927Z,71.02
2017-11-03T10:45:26.923Z,71.15
2017-11-03T10:46:26.917Z,70.96
2017-11-03T10:47:26.913Z,71.25
2017-11-03T10:48:26.910Z,70.87
2017-11-03T10:49:26.902Z,71.15
2017-11-03T10:50:26.896Z,70.67
2017-11-03T10:51:26.894Z,70.77
2017-11-03T10:52:26.885Z,70.20
2017-11-03T10:53:26.877Z,70.20
2017-11-03T10:54:26.864Z,70.77
2017-11-03T10:55:26.862Z,70.10
2017-11-03T10:56:26.858Z,70.10
2017-11-03T10:57:27.705Z,69.82
2017-11-03T10:58:26.847Z,69.82
2017-11-03T10:59:26.840Z,70.20
2017-11-03T11:00:26.837Z,70.01
2017-11-03T11:01:26.829Z,69.43
2017-11-03T11:02:26.827Z,69.15
2017-11-03T11:03:26.818Z,69.53
2017-11-03T11:04:26.815Z,69.43
2017-11-03T11:05:26.812Z,69.34
2017-11-03T11:06:26.804Z,68.86
2017-11-03T11:07:26.801Z,69.37
2017-11-03T11:08:26.796Z,69.37
2017-11-03T11:09:26.787Z,68.99
2017-11-03T11:10:26.779Z,69.47
2017-11-03T11:11:26.775Z,69.53
2017-11-03T11:12:26.767Z,69.09
2017-11-03T11:13:27.717Z,69.09
2017-11-03T11:14:26.759Z,68.80
2017-11-03T11:15:26.754Z,68.99
2017-11-03T11:16:26.746Z,69.27
2017-11-03T11:17:26.744Z,68.90
2017-11-03T11:18:27.726Z,68.70
2017-11-03T11:19:26.729Z,68.51
2017-11-03T11:20:26.725Z,68.70
2017-11-03T11:21:27.217Z,69.09
2017-11-03T11:22:26.712Z,68.80
2017-11-03T11:23:26.715Z,70.14
2017-11-03T11:24:26.695Z,70.52
2017-11-03T11:25:26.695Z,70.14
2017-11-03T11:26:26.695Z,69.37
2017-11-03T11:27:26.682Z,69.47
2017-11-03T11:28:26.675Z,68.70
2017-11-03T11:29:26.678Z,67.94
2017-11-03T11:30:26.749Z,67.94
2017-11-03T11:31:27.225Z,67.36
2017-11-03T11:32:26.671Z,67.46
2017-11-03T11:33:26.657Z,67.65
2017-11-03T11:34:26.648Z,67.84
2017-11-03T11:35:26.643Z,67.94
2017-11-03T11:36:26.645Z,66.99
2017-11-03T11:37:27.221Z,67.84
2017-11-03T11:38:26.631Z,67.27
2017-11-03T11:39:26.620Z,67.36
2017-11-03T11:40:26.620Z,67.27
2017-11-03T11:41:26.634Z,67.36
2017-11-03T11:42:26.608Z,67.08
2017-11-03T11:43:26.616Z,67.18
2017-11-03T11:44:26.607Z,66.99
2017-11-03T11:45:26.613Z,66.79
2017-11-03T11:46:26.586Z,67.18
2017-11-03T11:47:26.600Z,67.46
2017-11-03T11:48:26.592Z,67.27
2017-11-03T11:49:33.235Z,66.60
2017-11-03T11:50:26.574Z,66.70
2017-11-03T11:51:26.556Z,66.50
2017-11-03T11:52:26.562Z,67.18
2017-11-03T11:53:26.561Z,67.18
2017-11-03T11:54:26.540Z,67.27
2017-11-03T11:55:26.555Z,67.18
2017-11-03T11:56:27.239Z,67.36
2017-11-03T11:57:26.535Z,67.55
2017-11-03T11:58:26.517Z,67.36
2017-11-03T11:59:26.527Z,66.70
2017-11-03T12:00:26.517Z,66.92
2017-11-03T12:01:26.511Z,67.08
2017-11-03T12:02:26.501Z,67.18
2017-11-03T12:03:26.494Z,67.08
2017-11-03T12:04:26.485Z,67.18
2017-11-03T12:05:26.511Z,67.36
2017-11-03T12:06:26.485Z,67.27
2017-11-03T12:07:26.480Z,67.08
2017-11-03T12:08:26.485Z,67.08
2017-11-03T12:09:26.470Z,67.18
2017-11-03T12:10:26.458Z,66.99
2017-11-03T12:11:26.464Z,66.50
2017-11-03T12:12:26.453Z,66.73
2017-11-03T12:13:26.443Z,67.08
2017-11-03T12:14:26.442Z,67.21
2017-11-03T12:15:26.438Z,66.50
2017-11-03T12:16:26.430Z,65.36
2017-11-03T12:17:26.429Z,65.36
2017-11-03T12:18:26.419Z,65.07
2017-11-03T12:19:26.414Z,65.30
2017-11-03T12:20:26.407Z,65.17
2017-11-03T12:21:26.403Z,64.98
2017-11-03T12:22:26.406Z,65.26
2017-11-03T12:23:26.392Z,64.98
2017-11-03T12:24:26.388Z,64.59
2017-11-03T12:25:26.384Z,64.22
2017-11-03T12:26:26.378Z,64.25
2017-11-03T12:27:26.377Z,64.15
2017-11-03T12:28:26.372Z,64.50
2017-11-03T12:29:26.368Z,64.50
2017-11-03T12:30:26.363Z,65.01
2017-11-03T12:31:26.359Z,65.30
2017-11-03T12:32:26.355Z,65.30
2017-11-03T12:33:26.349Z,66.06
2017-11-03T12:34:26.346Z,66.35
2017-11-03T12:35:26.329Z,66.73
2017-11-03T12:36:26.326Z,67.11
2017-11-03T12:37:26.318Z,67.18
2017-11-03T12:38:26.320Z,67.18
2017-11-03T12:39:26.321Z,67.55
2017-11-03T12:40:26.300Z,66.99
2017-11-03T12:41:26.304Z,66.99
2017-11-03T12:42:26.299Z,67.65
2017-11-03T12:43:26.291Z,67.55
2017-11-03T12:44:26.296Z,67.84
2017-11-03T12:45:26.286Z,68.32
2017-11-03T12:46:26.278Z,67.78
2017-11-03T12:47:26.270Z,67.75
2017-11-03T12:48:26.263Z,67.65
2017-11-03T12:49:26.257Z,68.35
2017-11-03T12:50:26.247Z,68.51
2017-11-03T12:51:26.249Z,67.97
2017-11-03T12:52:26.240Z,67.97